createdAt,value
2022-08-16T00:00:38.658Z,117.13
2022-08-16T00:01:33.977Z,117.54
2022-08-16T00:02:31.328Z,117.87
2022-08-16T00:03:30.453Z,117.46
2022-08-16T00:04:38.414Z,117.05
2022-08-16T00:05:34.976Z,117.54
2022-08-16T00:06:30.393Z,117.30
2022-08-16T00:07:30.381Z,117.13
2022-08-16T00:08:36.005Z,117.21
2022-08-16T00:09:31.928Z,117.05
2022-08-16T00:10:37.536Z,117.54
2022-08-16T00:11:30.334Z,118.04
2022-08-16T00:12:30.428Z,117.38
2022-08-16T00:13:30.338Z,117.54
2022-08-16T00:14:30.445Z,117.46
2022-08-16T00:15:51.626Z,117.21
2022-08-16T00:17:00.657Z,117.54
2022-08-16T00:17:56.315Z,117.79
2022-08-16T00:18:31.558Z,117.38
2022-08-16T00:19:41.546Z,117.21
2022-08-16T00:20:32.042Z,117.13
2022-08-16T00:21:31.176Z,117.21
2022-08-16T00:22:36.619Z,116.81
2022-08-16T00:23:39.985Z,117.38
2022-08-16T00:24:33.170Z,117.54
2022-08-16T00:26:33.637Z,117.79
2022-08-16T00:26:35.154Z,117.30
2022-08-16T00:27:31.629Z,117.38
2022-08-16T00:28:36.516Z,117.46
2022-08-16T00:29:30.264Z,117.13
2022-08-16T00:30:30.135Z,117.21
2022-08-16T00:31:59.334Z,117.13
2022-08-16T00:32:32.941Z,117.38
2022-08-16T00:33:30.793Z,117.30
2022-08-16T00:34:43.569Z,117.21
2022-08-16T00:35:31.583Z,117.38
2022-08-16T00:36:30.149Z,117.38
2022-08-16T00:37:57.897Z,117.38
2022-08-16T00:38:41.326Z,117.87
2022-08-16T00:39:31.570Z,117.46
2022-08-16T00:40:36.838Z,117.46
2022-08-16T00:41:31.729Z,117.63
2022-08-16T00:42:32.203Z,117.30
2022-08-16T00:43:42.549Z,116.97
2022-08-16T00:44:31.867Z,117.63
2022-08-16T00:45:29.907Z,117.13
2022-08-16T00:46:53.951Z,117.79
2022-08-16T00:47:30.932Z,117.46
2022-08-16T00:48:44.299Z,117.46
2022-08-16T00:49:44.426Z,117.05
2022-08-16T00:50:36.573Z,117.96
2022-08-16T00:51:31.428Z,117.38
2022-08-16T00:52:37.900Z,117.71
2022-08-16T00:53:31.320Z,117.71
2022-08-16T00:54:29.805Z,117.63
2022-08-16T00:55:37.717Z,117.96
2022-08-16T00:56:57.968Z,117.96
2022-08-16T00:57:58.282Z,118.29
2022-08-16T00:58:34.529Z,117.79
2022-08-16T00:59:29.730Z,118.21
2022-08-16T01:00:29.760Z,118.04
2022-08-16T01:01:29.788Z,117.87
2022-08-16T01:02:36.162Z,118.79
2022-08-16T01:03:32.679Z,118.29
2022-08-16T01:04:35.186Z,118.37
2022-08-16T01:05:29.648Z,118.04
2022-08-16T01:06:40.125Z,118.04
2022-08-16T01:07:50.742Z,118.12
2022-08-16T01:08:38.427Z,118.21
2022-08-16T01:09:33.302Z,118.79
2022-08-16T01:10:31.848Z,119.05
2022-08-16T01:11:29.706Z,118.29
2022-08-16T01:12:29.561Z,118.71
2022-08-16T01:13:35.979Z,118.71
2022-08-16T01:14:30.108Z,118.79
2022-08-16T01:15:30.233Z,118.71
2022-08-16T01:16:29.533Z,118.79
2022-08-16T01:17:29.506Z,118.79
2022-08-16T01:18:39.918Z,118.71
2022-08-16T01:19:37.556Z,118.71
2022-08-16T01:20:30.349Z,119.05
2022-08-16T01:21:33.777Z,119.05
2022-08-16T01:22:48.000Z,118.88
2022-08-16T01:24:00.892Z,118.46
2022-08-16T01:24:44.434Z,119.22
2022-08-16T01:25:36.703Z,118.21
2022-08-16T01:26:34.658Z,118.79
2022-08-16T01:27:30.907Z,119.05
2022-08-16T01:28:30.612Z,118.88
2022-08-16T01:29:44.057Z,118.88
2022-08-16T01:30:34.479Z,118.88
2022-08-16T01:31:37.607Z,118.79
2022-08-16T01:32:33.582Z,118.96
2022-08-16T01:33:33.238Z,118.79
2022-08-16T01:34:30.813Z,118.96
2022-08-16T01:35:29.277Z,118.54
2022-08-16T01:36:37.393Z,119.73
2022-08-16T01:37:35.792Z,118.71
2022-08-16T01:38:30.760Z,119.05
2022-08-16T01:39:29.570Z,118.37
2022-08-16T01:40:29.203Z,118.71
2022-08-16T01:41:41.922Z,118.63
2022-08-16T01:42:30.677Z,118.88
2022-08-16T01:43:29.506Z,118.63
2022-08-16T01:44:37.515Z,118.79
2022-08-16T01:45:39.767Z,118.88
2022-08-16T01:46:40.130Z,119.22
2022-08-16T01:47:29.396Z,118.29
2022-08-16T01:48:29.160Z,119.30
2022-08-16T01:49:43.494Z,119.05
2022-08-16T01:50:42.549Z,119.05
2022-08-16T01:51:39.259Z,118.96
2022-08-16T01:52:30.559Z,119.56
2022-08-16T01:53:29.332Z,119.22
2022-08-16T01:54:30.923Z,119.73
2022-08-16T01:55:35.635Z,118.79
2022-08-16T01:56:30.590Z,118.46
2022-08-16T01:57:35.555Z,119.39
2022-08-16T01:58:28.992Z,119.73
2022-08-16T01:59:28.957Z,118.54
2022-08-16T02:00:29.807Z,119.47
2022-08-16T02:01:29.021Z,118.96
2022-08-16T02:02:36.186Z,119.39
2022-08-16T02:03:30.679Z,119.90
2022-08-16T02:04:48.341Z,119.22
2022-08-16T02:05:30.362Z,118.88
2022-08-16T02:06:33.775Z,118.88
2022-08-16T02:07:36.685Z,119.39
2022-08-16T02:08:33.285Z,118.88
2022-08-16T02:09:28.867Z,118.96
2022-08-16T02:10:30.323Z,119.73
2022-08-16T02:11:47.704Z,119.73
2022-08-16T02:12:50.883Z,118.96
2022-08-16T02:13:36.033Z,119.47
2022-08-16T02:14:30.268Z,119.13
2022-08-16T02:15:28.752Z,119.13
2022-08-16T02:16:28.732Z,119.22
2022-08-16T02:17:29.540Z,120.16
2022-08-16T02:18:28.680Z,119.39
2022-08-16T02:19:59.330Z,119.39
2022-08-16T02:20:29.701Z,119.22
2022-08-16T02:21:31.435Z,119.22
2022-08-16T02:22:35.042Z,119.47
2022-08-16T02:23:30.146Z,119.64
2022-08-16T02:24:31.732Z,119.05
2022-08-16T02:25:52.444Z,119.64
2022-08-16T02:26:34.263Z,119.22
2022-08-16T02:27:28.638Z,119.81
2022-08-16T02:28:28.638Z,119.22
2022-08-16T02:29:31.857Z,119.99
2022-08-16T02:30:37.929Z,119.22
2022-08-16T02:32:03.913Z,119.22
2022-08-16T02:32:51.027Z,119.81
2022-08-16T02:33:43.983Z,119.22
2022-08-16T02:34:34.788Z,118.54
2022-08-16T02:35:30.034Z,119.56
2022-08-16T02:36:47.400Z,119.64
2022-08-16T02:37:51.590Z,119.90
2022-08-16T02:38:31.567Z,119.47
2022-08-16T02:39:30.266Z,119.99
2022-08-16T02:40:28.491Z,119.47
2022-08-16T02:41:28.457Z,119.56
2022-08-16T02:42:35.018Z,119.73
2022-08-16T02:43:29.464Z,119.73
2022-08-16T02:44:28.682Z,119.73
2022-08-16T02:45:28.662Z,119.47
2022-08-16T02:46:30.030Z,119.73
2022-08-16T02:48:00.455Z,119.64
2022-08-16T02:48:30.908Z,119.73
2022-08-16T02:49:58.339Z,119.99
2022-08-16T02:50:55.374Z,119.47
2022-08-16T02:51:29.315Z,119.90
2022-08-16T02:52:29.450Z,119.81
2022-08-16T02:53:34.525Z,119.81
2022-08-16T02:54:28.239Z,119.90
2022-08-16T02:55:40.708Z,118.88
2022-08-16T02:56:33.637Z,120.24
2022-08-16T02:57:29.179Z,119.47
2022-08-16T02:58:29.968Z,119.73
2022-08-16T02:59:41.431Z,119.90
2022-08-16T03:00:34.574Z,120.24
2022-08-16T03:01:33.734Z,119.05
2022-08-16T03:02:31.748Z,120.07
2022-08-16T03:04:39.426Z,119.47
2022-08-16T03:04:50.742Z,120.07
2022-08-16T03:05:30.905Z,119.99
2022-08-16T03:06:42.194Z,119.47
2022-08-16T03:07:29.584Z,120.07
2022-08-16T03:08:52.097Z,120.33
2022-08-16T03:09:35.385Z,119.99
2022-08-16T03:10:33.484Z,120.59
2022-08-16T03:11:35.323Z,119.90
2022-08-16T03:12:30.448Z,120.07
2022-08-16T03:13:29.565Z,119.22
2022-08-16T03:14:34.277Z,119.90
2022-08-16T03:15:28.049Z,119.56
2022-08-16T03:16:38.025Z,120.24
2022-08-16T03:17:32.485Z,119.64
2022-08-16T03:18:34.206Z,119.81
2022-08-16T03:19:48.174Z,120.24
2022-08-16T03:20:35.169Z,120.07
2022-08-16T03:21:27.931Z,119.47
2022-08-16T03:22:29.648Z,120.07
2022-08-16T03:23:35.893Z,119.99
2022-08-16T03:24:29.928Z,120.85
2022-08-16T03:25:43.939Z,119.81
2022-08-16T03:26:35.653Z,119.47
2022-08-16T03:27:30.931Z,120.07
2022-08-16T03:28:28.815Z,120.24
2022-08-16T03:29:30.149Z,120.59
2022-08-16T03:30:27.791Z,120.16
2022-08-16T03:31:34.826Z,119.99
2022-08-16T03:33:12.282Z,188.89
2022-08-16T03:34:12.268Z,157.72
2022-08-16T03:35:12.259Z,143.90
2022-08-16T03:36:30.001Z,136.51
2022-08-16T03:37:23.149Z,130.76
2022-08-16T03:38:32.452Z,127.47
2022-08-16T03:39:14.933Z,126.42
2022-08-16T03:40:31.655Z,124.17
2022-08-16T03:41:24.478Z,123.98
2022-08-16T03:42:20.390Z,123.25
2022-08-16T03:43:21.621Z,122.00
2022-08-16T03:44:12.151Z,122.53
2022-08-16T03:45:13.160Z,121.82
2022-08-16T03:46:12.103Z,121.55
2022-08-16T03:47:13.099Z,121.38
2022-08-16T03:48:15.184Z,120.50
2022-08-16T03:49:20.418Z,120.94
2022-08-16T03:50:25.807Z,119.99
2022-08-16T03:51:13.561Z,120.85
2022-08-16T03:52:12.023Z,120.16
2022-08-16T03:53:12.032Z,120.59
2022-08-16T03:54:19.221Z,120.07
2022-08-16T03:55:15.256Z,120.42
2022-08-16T03:56:19.858Z,120.24
2022-08-16T03:57:15.683Z,119.99
2022-08-16T03:58:12.085Z,120.42
2022-08-16T03:59:18.311Z,120.24
2022-08-16T04:00:11.967Z,120.50
2022-08-16T04:01:12.974Z,120.76
2022-08-16T04:02:22.175Z,120.16
2022-08-16T04:03:13.652Z,120.24
2022-08-16T04:04:30.929Z,120.42
2022-08-16T04:05:13.367Z,119.39
2022-08-16T04:06:11.855Z,120.16
2022-08-16T04:07:11.849Z,120.24
2022-08-16T04:08:22.315Z,120.33
2022-08-16T04:09:13.364Z,119.90
2022-08-16T04:10:35.953Z,120.24
2022-08-16T04:11:16.604Z,119.13
2022-08-16T04:12:54.510Z,119.99
2022-08-16T04:13:20.640Z,120.07
2022-08-16T04:14:31.145Z,119.64
2022-08-16T04:15:19.611Z,120.16
2022-08-16T04:16:27.623Z,119.05
2022-08-16T04:17:13.567Z,119.05
2022-08-16T04:18:11.695Z,119.90
2022-08-16T04:19:11.954Z,119.05
2022-08-16T04:20:31.637Z,119.30
2022-08-16T04:21:29.103Z,119.64
2022-08-16T04:22:13.131Z,119.39
2022-08-16T04:23:12.594Z,119.73
2022-08-16T04:24:11.674Z,119.39
2022-08-16T04:25:11.639Z,119.90
2022-08-16T04:26:16.838Z,119.13
2022-08-16T04:27:19.421Z,119.56
2022-08-16T04:28:52.122Z,118.88
2022-08-16T04:29:23.811Z,118.54
2022-08-16T04:30:13.129Z,118.79
2022-08-16T04:31:13.123Z,119.05
2022-08-16T04:32:11.502Z,119.39
2022-08-16T04:33:17.813Z,118.71
2022-08-16T04:34:14.470Z,118.63
2022-08-16T04:35:15.509Z,118.46
2022-08-16T04:36:12.407Z,118.88
2022-08-16T04:37:13.009Z,118.88
2022-08-16T04:38:21.249Z,119.22
2022-08-16T04:39:11.450Z,118.96
2022-08-16T04:40:11.489Z,118.79
2022-08-16T04:41:13.211Z,118.21
2022-08-16T04:42:11.697Z,118.79
2022-08-16T04:43:11.373Z,118.37
2022-08-16T04:44:52.449Z,118.29
2022-08-16T04:45:13.190Z,118.37
2022-08-16T04:46:32.057Z,118.12
2022-08-16T04:47:35.824Z,118.04
2022-08-16T04:48:11.299Z,118.29
2022-08-16T04:49:13.415Z,117.96
2022-08-16T04:50:18.010Z,118.04
2022-08-16T04:51:12.364Z,117.63
2022-08-16T04:52:34.850Z,117.79
2022-08-16T04:53:12.259Z,118.21
2022-08-16T04:54:11.228Z,118.21
2022-08-16T04:55:11.980Z,117.71
2022-08-16T04:56:18.485Z,117.71
2022-08-16T04:57:11.194Z,117.21
2022-08-16T04:58:43.610Z,118.04
2022-08-16T04:59:12.556Z,117.21
2022-08-16T05:00:32.717Z,116.81
2022-08-16T05:01:12.278Z,117.38
2022-08-16T05:02:42.535Z,116.40
2022-08-16T05:03:12.189Z,117.21
2022-08-16T05:04:19.526Z,116.89
2022-08-16T05:05:17.065Z,116.64
2022-08-16T05:06:11.085Z,116.64
2022-08-16T05:07:20.232Z,116.72
2022-08-16T05:08:29.177Z,116.32
2022-08-16T05:09:12.528Z,116.00
2022-08-16T05:10:19.813Z,116.56
2022-08-16T05:11:12.505Z,115.76
2022-08-16T05:12:11.289Z,116.56
2022-08-16T05:13:15.484Z,116.24
2022-08-16T05:14:41.975Z,116.40
2022-08-16T05:15:11.972Z,115.44
2022-08-16T05:16:11.879Z,115.68
2022-08-16T05:17:12.756Z,114.96
2022-08-16T05:18:15.392Z,115.68
2022-08-16T05:19:18.720Z,114.88
2022-08-16T05:20:38.885Z,115.04
2022-08-16T05:21:12.576Z,115.12
2022-08-16T05:22:18.058Z,114.96
2022-08-16T05:23:13.577Z,114.88
2022-08-16T05:24:11.780Z,114.65
2022-08-16T05:25:18.031Z,114.26
2022-08-16T05:26:19.537Z,114.88
2022-08-16T05:27:12.309Z,115.04
2022-08-16T05:28:10.857Z,114.26
2022-08-16T05:29:15.651Z,113.79
2022-08-16T05:30:35.629Z,114.02
2022-08-16T05:31:18.025Z,114.02
2022-08-16T05:32:32.502Z,113.94
2022-08-16T05:33:16.510Z,113.48
2022-08-16T05:34:19.644Z,114.18
2022-08-16T05:35:12.227Z,113.64
2022-08-16T05:36:17.000Z,113.64
2022-08-16T05:37:12.761Z,113.94
2022-08-16T05:38:32.697Z,113.33
2022-08-16T05:39:11.659Z,113.79
2022-08-16T05:40:13.211Z,113.18
2022-08-16T05:41:17.125Z,113.02
2022-08-16T05:42:10.900Z,113.71
2022-08-16T05:43:11.978Z,113.40
2022-08-16T05:44:23.684Z,112.87
2022-08-16T05:45:12.829Z,112.79
2022-08-16T05:46:29.731Z,113.40
2022-08-16T05:47:15.331Z,112.79
2022-08-16T05:48:10.528Z,112.49
2022-08-16T05:49:10.529Z,112.64
2022-08-16T05:50:19.370Z,112.72
2022-08-16T05:51:38.223Z,112.34
2022-08-16T05:52:13.587Z,112.19
2022-08-16T05:53:10.508Z,112.95
2022-08-16T05:54:11.378Z,112.49
2022-08-16T05:55:10.486Z,112.79
2022-08-16T05:56:10.470Z,112.34
2022-08-16T05:57:18.415Z,111.96
2022-08-16T05:58:31.644Z,112.19
2022-08-16T05:59:11.385Z,111.89
2022-08-16T06:00:10.381Z,111.74
2022-08-16T06:01:11.740Z,111.89
2022-08-16T06:02:17.431Z,112.11
2022-08-16T06:03:13.014Z,112.42
2022-08-16T06:04:12.907Z,111.82
2022-08-16T06:05:10.995Z,111.15
2022-08-16T06:06:11.584Z,111.74
2022-08-16T06:07:26.225Z,111.89
2022-08-16T06:08:31.681Z,111.67
2022-08-16T06:09:11.940Z,111.74
2022-08-16T06:10:10.280Z,111.52
2022-08-16T06:11:13.325Z,111.59
2022-08-16T06:12:26.835Z,111.37
2022-08-16T06:13:11.703Z,111.59
2022-08-16T06:14:11.733Z,111.37
2022-08-16T06:15:10.427Z,111.00
2022-08-16T06:16:18.517Z,110.93
2022-08-16T06:17:12.321Z,110.93
2022-08-16T06:18:16.448Z,110.49
2022-08-16T06:19:11.263Z,111.07
2022-08-16T06:20:10.158Z,110.49
2022-08-16T06:21:10.974Z,110.42
2022-08-16T06:22:10.462Z,110.85
2022-08-16T06:23:17.047Z,111.00
2022-08-16T06:24:53.673Z,110.20
2022-08-16T06:25:12.194Z,110.12
2022-08-16T06:26:10.093Z,110.71
2022-08-16T06:27:10.091Z,110.63
2022-08-16T06:28:17.034Z,110.20
2022-08-16T06:29:11.039Z,110.42
2022-08-16T06:30:19.786Z,110.85
2022-08-16T06:31:12.167Z,109.91
2022-08-16T06:32:09.978Z,110.42
2022-08-16T06:33:12.258Z,109.91
2022-08-16T06:34:54.889Z,109.69
2022-08-16T06:35:17.214Z,109.69
2022-08-16T06:36:09.959Z,109.40
2022-08-16T06:37:14.144Z,109.69
2022-08-16T06:38:31.922Z,109.40
2022-08-16T06:39:10.889Z,109.33
2022-08-16T06:40:17.130Z,109.40
2022-08-16T06:41:14.078Z,109.55
2022-08-16T06:42:10.521Z,109.19
2022-08-16T06:43:10.001Z,109.48
2022-08-16T06:44:20.764Z,109.55
2022-08-16T06:45:13.130Z,109.55
2022-08-16T06:46:16.172Z,108.84
2022-08-16T06:47:10.614Z,109.05
2022-08-16T06:48:09.773Z,108.91
2022-08-16T06:49:11.178Z,108.34
2022-08-16T06:50:10.397Z,108.69
2022-08-16T06:51:17.476Z,108.20
2022-08-16T06:52:57.255Z,108.84
2022-08-16T06:53:11.614Z,108.69
2022-08-16T06:54:14.045Z,108.34
2022-08-16T06:55:12.986Z,108.48
2022-08-16T06:56:23.430Z,108.41
2022-08-16T06:57:16.500Z,108.27
2022-08-16T06:58:22.117Z,108.06
2022-08-16T06:59:11.398Z,107.86
2022-08-16T07:00:13.102Z,107.99
2022-08-16T07:01:21.378Z,107.51
2022-08-16T07:02:32.939Z,107.79
2022-08-16T07:03:27.854Z,107.30
2022-08-16T07:04:12.146Z,107.37
2022-08-16T07:05:15.568Z,107.30
2022-08-16T07:06:11.018Z,106.69
2022-08-16T07:07:10.097Z,107.17
2022-08-16T07:08:09.496Z,107.03
2022-08-16T07:09:10.442Z,107.03
2022-08-16T07:10:09.760Z,106.75
2022-08-16T07:11:09.514Z,106.42
2022-08-16T07:12:09.586Z,106.28
2022-08-16T07:13:26.539Z,106.21
2022-08-16T07:14:24.375Z,106.42
2022-08-16T07:15:18.874Z,106.42
2022-08-16T07:16:10.895Z,106.21
2022-08-16T07:17:12.727Z,105.94
2022-08-16T07:18:10.348Z,105.61
2022-08-16T07:19:17.729Z,106.08
2022-08-16T07:20:35.533Z,105.81
2022-08-16T07:21:10.594Z,105.54
2022-08-16T07:22:30.496Z,105.35
2022-08-16T07:23:13.412Z,105.48
2022-08-16T07:24:29.766Z,105.01
2022-08-16T07:25:12.426Z,105.21
2022-08-16T07:26:09.248Z,104.95
2022-08-16T07:27:12.552Z,104.82
2022-08-16T07:28:09.285Z,104.62
2022-08-16T07:29:09.247Z,104.82
2022-08-16T07:30:45.414Z,104.49
2022-08-16T07:31:13.168Z,104.43
2022-08-16T07:32:09.217Z,104.04
2022-08-16T07:33:09.160Z,104.30
2022-08-16T07:34:10.215Z,104.04
2022-08-16T07:35:17.259Z,104.36
2022-08-16T07:36:09.751Z,103.65
2022-08-16T07:37:09.543Z,103.71
2022-08-16T07:38:09.124Z,103.39
2022-08-16T07:39:15.358Z,103.46
2022-08-16T07:40:11.174Z,103.52
2022-08-16T07:41:15.409Z,103.97
2022-08-16T07:42:09.044Z,103.46
2022-08-16T07:43:10.541Z,102.76
2022-08-16T07:44:16.411Z,102.89
2022-08-16T07:45:10.635Z,103.52
2022-08-16T07:46:39.167Z,103.27
2022-08-16T07:47:10.269Z,103.33
2022-08-16T07:48:11.574Z,102.70
2022-08-16T07:49:11.339Z,103.20
2022-08-16T07:50:09.042Z,102.89
2022-08-16T07:51:17.217Z,102.07
2022-08-16T07:52:18.759Z,102.57
2022-08-16T07:53:10.453Z,102.51
2022-08-16T07:54:09.920Z,102.26
2022-08-16T07:55:09.873Z,102.26
2022-08-16T07:56:15.498Z,102.57
2022-08-16T07:57:11.451Z,101.82
2022-08-16T07:58:09.164Z,102.07
2022-08-16T07:59:10.346Z,102.13
2022-08-16T08:00:08.838Z,102.07
2022-08-16T08:01:12.658Z,101.76
2022-08-16T08:02:19.996Z,101.33
2022-08-16T08:03:11.379Z,102.07
2022-08-16T08:04:08.764Z,101.82
2022-08-16T08:05:08.764Z,101.45
2022-08-16T08:06:10.423Z,101.27
2022-08-16T08:07:08.981Z,101.76
2022-08-16T08:08:51.128Z,100.90
2022-08-16T08:09:09.693Z,102.32
2022-08-16T08:10:11.127Z,101.51
2022-08-16T08:11:09.191Z,100.66
2022-08-16T08:12:08.690Z,101.15
2022-08-16T08:13:10.216Z,101.58
2022-08-16T08:14:29.978Z,101.45
2022-08-16T08:15:10.486Z,100.84
2022-08-16T08:16:08.612Z,100.24
2022-08-16T08:17:10.103Z,100.24
2022-08-16T08:18:30.058Z,100.36
2022-08-16T08:19:16.513Z,100.00
2022-08-16T08:20:08.576Z,99.82
2022-08-16T08:21:08.645Z,100.36
2022-08-16T08:22:08.565Z,100.24
2022-08-16T08:23:08.559Z,99.94
2022-08-16T08:24:16.043Z,100.24
2022-08-16T08:25:08.508Z,99.70
2022-08-16T08:26:17.522Z,100.42
2022-08-16T08:27:10.338Z,99.58
2022-08-16T08:28:10.891Z,99.41
2022-08-16T08:29:08.617Z,99.70
2022-08-16T08:30:50.310Z,99.23
2022-08-16T08:31:09.468Z,99.52
2022-08-16T08:32:59.690Z,99.11
2022-08-16T08:33:09.385Z,99.46
2022-08-16T08:34:08.444Z,98.64
2022-08-16T08:35:14.997Z,98.88
2022-08-16T08:36:08.353Z,98.41
2022-08-16T08:37:08.380Z,99.05
2022-08-16T08:38:09.373Z,98.59
2022-08-16T08:39:09.295Z,98.53
2022-08-16T08:40:08.416Z,98.12
2022-08-16T08:41:14.617Z,98.59
2022-08-16T08:42:08.320Z,98.59
2022-08-16T08:43:11.975Z,98.01
2022-08-16T08:44:29.108Z,98.24
2022-08-16T08:45:20.200Z,98.36
2022-08-16T08:46:18.124Z,98.12
2022-08-16T08:47:12.267Z,97.44
2022-08-16T08:48:08.192Z,98.01
2022-08-16T08:49:09.210Z,97.16
2022-08-16T08:50:08.311Z,97.89
2022-08-16T08:51:08.951Z,96.82
2022-08-16T08:52:34.966Z,97.67
2022-08-16T08:53:17.288Z,97.67
2022-08-16T08:54:09.421Z,97.16
2022-08-16T08:55:09.511Z,96.82
2022-08-16T08:56:22.534Z,96.54
2022-08-16T08:57:09.626Z,97.21
2022-08-16T08:58:14.570Z,96.43
2022-08-16T08:59:13.379Z,96.38
2022-08-16T09:00:13.546Z,96.76
2022-08-16T09:01:08.106Z,96.26
2022-08-16T09:02:08.118Z,96.54
2022-08-16T09:03:08.405Z,96.54
2022-08-16T09:04:17.409Z,95.88
2022-08-16T09:05:15.753Z,95.66
2022-08-16T09:06:09.504Z,95.82
2022-08-16T09:07:08.030Z,95.44
2022-08-16T09:08:09.071Z,95.61
2022-08-16T09:09:18.516Z,95.61
2022-08-16T09:10:20.805Z,95.33
2022-08-16T09:11:09.626Z,95.06
2022-08-16T09:12:09.545Z,95.66
2022-08-16T09:13:10.633Z,94.85
2022-08-16T09:14:24.557Z,94.90
2022-08-16T09:15:11.568Z,94.74
2022-08-16T09:16:07.874Z,95.01
2022-08-16T09:17:21.504Z,94.05
2022-08-16T09:18:24.927Z,94.31
2022-08-16T09:19:15.877Z,94.69
2022-08-16T09:20:07.817Z,94.26
2022-08-16T09:21:09.253Z,94.47
2022-08-16T09:22:07.956Z,95.46
2022-08-16T09:23:09.592Z,94.53
2022-08-16T09:24:19.784Z,95.14
2022-08-16T09:25:11.145Z,95.68
2022-08-16T09:26:43.065Z,94.10
2022-08-16T09:27:09.055Z,95.46
2022-08-16T09:28:09.384Z,94.92
2022-08-16T09:29:24.275Z,95.57
2022-08-16T09:30:33.245Z,95.46
2022-08-16T09:31:08.673Z,95.36
2022-08-16T09:32:08.258Z,95.03
2022-08-16T09:33:12.847Z,95.25
2022-08-16T09:34:07.650Z,95.25
2022-08-16T09:35:13.969Z,95.14
2022-08-16T09:36:11.786Z,94.50
2022-08-16T09:37:18.130Z,94.28
2022-08-16T09:38:09.777Z,94.71
2022-08-16T09:39:07.891Z,94.71
2022-08-16T09:40:32.818Z,94.18
2022-08-16T09:41:15.776Z,94.18
2022-08-16T09:42:08.150Z,93.86
2022-08-16T09:43:07.773Z,93.55
2022-08-16T09:45:09.773Z,93.75
2022-08-16T09:45:12.491Z,93.96
2022-08-16T09:46:44.463Z,93.44
2022-08-16T09:47:10.323Z,93.86
2022-08-16T09:48:07.448Z,93.34
2022-08-16T09:49:08.442Z,93.44
2022-08-16T09:50:11.930Z,93.03
2022-08-16T09:51:36.621Z,92.51
2022-08-16T09:52:09.882Z,92.61
2022-08-16T09:53:07.622Z,92.41
2022-08-16T09:54:09.632Z,92.21
2022-08-16T09:55:07.374Z,92.21
2022-08-16T09:56:51.376Z,146.54
2022-08-16T09:57:53.380Z,120.42
2022-08-16T09:59:05.812Z,108.55
2022-08-16T09:59:56.088Z,102.32
2022-08-16T10:00:50.378Z,98.64
2022-08-16T10:02:00.911Z,95.82
2022-08-16T10:02:51.354Z,94.53
2022-08-16T10:04:01.508Z,95.03
2022-08-16T10:04:54.410Z,93.86
2022-08-16T10:05:50.327Z,93.86
2022-08-16T10:06:50.441Z,92.82
2022-08-16T10:07:59.338Z,92.82
2022-08-16T10:08:50.242Z,92.21
2022-08-16T10:09:55.270Z,91.80
2022-08-16T10:10:50.566Z,91.90
2022-08-16T10:11:51.252Z,91.60
2022-08-16T10:12:55.701Z,91.60
2022-08-16T10:13:57.967Z,90.91
2022-08-16T10:14:50.294Z,91.00
2022-08-16T10:15:55.793Z,90.61
2022-08-16T10:16:59.631Z,90.61
2022-08-16T10:18:00.131Z,90.32
2022-08-16T10:19:06.748Z,89.93
2022-08-16T10:19:51.576Z,89.83
2022-08-16T10:20:51.240Z,90.12
2022-08-16T10:21:56.391Z,89.54
2022-08-16T10:22:58.802Z,89.35
2022-08-16T10:23:57.820Z,89.26
2022-08-16T10:25:00.067Z,89.07
2022-08-16T10:27:18.380Z,88.41
2022-08-16T10:27:19.702Z,88.50
2022-08-16T10:27:56.990Z,88.13
2022-08-16T10:28:51.467Z,87.76
2022-08-16T10:30:00.756Z,87.76
2022-08-16T10:30:56.618Z,87.58
2022-08-16T10:31:53.606Z,87.12
2022-08-16T10:32:51.133Z,86.94
2022-08-16T10:33:49.928Z,86.67
2022-08-16T10:34:51.310Z,86.32
2022-08-16T10:36:03.143Z,86.14
2022-08-16T10:36:54.156Z,85.61
2022-08-16T10:37:50.034Z,85.43
2022-08-16T10:38:49.852Z,86.05
2022-08-16T10:39:49.876Z,85.87
2022-08-16T10:40:51.359Z,84.57
2022-08-16T10:41:56.172Z,84.32
2022-08-16T10:42:50.314Z,84.23
2022-08-16T10:43:50.337Z,84.23
2022-08-16T10:44:53.813Z,84.15
2022-08-16T10:46:00.502Z,84.40
2022-08-16T10:46:51.299Z,84.32
2022-08-16T10:48:00.615Z,84.23
2022-08-16T10:48:51.209Z,84.32
2022-08-16T10:49:49.721Z,84.06
2022-08-16T10:50:49.695Z,84.06
2022-08-16T10:52:03.255Z,83.81
2022-08-16T10:52:51.879Z,83.81
2022-08-16T10:53:57.485Z,83.56
2022-08-16T10:55:57.444Z,83.23
2022-08-16T10:56:55.674Z,84.15
2022-08-16T10:57:50.724Z,83.64
2022-08-16T10:58:56.066Z,83.14
2022-08-16T10:59:53.203Z,83.39
2022-08-16T11:00:55.466Z,82.17
2022-08-16T11:02:59.479Z,82.57
2022-08-16T11:03:54.429Z,82.25
2022-08-16T11:05:07.072Z,81.84
2022-08-16T11:06:07.596Z,81.53
2022-08-16T11:07:08.385Z,81.37
2022-08-16T11:07:53.768Z,81.37
2022-08-16T11:09:21.043Z,81.37
2022-08-16T11:09:53.222Z,80.43
2022-08-16T11:11:07.025Z,80.28
2022-08-16T11:12:52.889Z,80.20
2022-08-16T11:13:58.174Z,79.74
2022-08-16T11:15:58.072Z,79.36
2022-08-16T11:17:11.085Z,79.21
2022-08-16T11:18:48.952Z,78.62
2022-08-16T11:19:06.019Z,78.76
2022-08-16T11:20:57.566Z,78.10
2022-08-16T11:22:50.549Z,78.03
2022-08-16T11:23:57.957Z,78.10
2022-08-16T11:25:11.951Z,77.67
2022-08-16T11:26:06.514Z,77.53
2022-08-16T11:27:51.480Z,77.38
2022-08-16T11:29:52.137Z,77.53
2022-08-16T11:30:54.826Z,77.24
2022-08-16T11:31:54.379Z,76.96
2022-08-16T11:32:55.513Z,76.82
2022-08-16T11:33:52.515Z,76.82
2022-08-16T11:35:10.681Z,76.19
2022-08-16T11:36:59.799Z,75.98
2022-08-16T11:38:47.424Z,75.84
2022-08-16T11:38:56.973Z,75.64
2022-08-16T11:39:55.351Z,75.50
2022-08-16T11:40:52.626Z,75.50
2022-08-16T11:41:49.261Z,75.64
2022-08-16T11:42:55.453Z,75.84
2022-08-16T11:43:50.249Z,75.98
2022-08-16T11:44:52.705Z,75.36
2022-08-16T11:45:54.223Z,75.70
2022-08-16T11:46:49.160Z,75.36
2022-08-16T11:47:50.922Z,75.43
2022-08-16T11:48:55.250Z,75.16
2022-08-16T11:49:48.975Z,75.29
2022-08-16T11:50:48.916Z,75.64
2022-08-16T11:51:48.902Z,75.03
2022-08-16T11:52:49.713Z,74.62
2022-08-16T11:53:48.903Z,74.56
2022-08-16T11:54:57.183Z,74.49
2022-08-16T11:55:50.738Z,74.36
2022-08-16T11:56:52.721Z,73.83
2022-08-16T11:57:56.279Z,74.10
2022-08-16T11:58:51.504Z,73.96
2022-08-16T11:59:50.343Z,73.71
2022-08-16T12:00:55.135Z,73.83
2022-08-16T12:01:59.325Z,73.90
2022-08-16T12:02:50.330Z,73.57
2022-08-16T12:03:48.799Z,73.51
2022-08-16T12:04:51.664Z,73.64
2022-08-16T12:05:55.029Z,73.13
2022-08-16T12:06:49.070Z,73.25
2022-08-16T12:07:48.836Z,72.81
2022-08-16T12:08:48.716Z,72.87
2022-08-16T12:09:48.716Z,72.68
2022-08-16T12:10:55.017Z,72.37
2022-08-16T12:11:53.008Z,72.31
2022-08-16T12:12:48.687Z,72.06
2022-08-16T12:13:48.651Z,71.81
2022-08-16T12:14:48.613Z,71.93
2022-08-16T12:15:55.038Z,71.99
2022-08-16T12:16:55.816Z,71.69
2022-08-16T12:17:50.290Z,71.69
2022-08-16T12:19:54.866Z,71.69
2022-08-16T12:20:48.632Z,71.44
2022-08-16T12:21:59.307Z,71.26
2022-08-16T12:22:48.659Z,71.08
2022-08-16T12:23:48.940Z,71.32
2022-08-16T12:24:52.067Z,71.38
2022-08-16T12:25:48.482Z,71.26
2022-08-16T12:26:54.963Z,70.90
2022-08-16T12:27:49.711Z,71.14
2022-08-16T12:28:54.611Z,71.14
2022-08-16T12:29:49.915Z,70.84
2022-08-16T12:30:48.438Z,70.78
2022-08-16T12:32:00.567Z,70.84
2022-08-16T12:32:52.971Z,70.78
2022-08-16T12:33:50.771Z,70.66
2022-08-16T12:34:52.746Z,70.48
2022-08-16T12:35:48.421Z,70.66
2022-08-16T12:36:54.631Z,70.60
2022-08-16T12:37:48.640Z,70.72
2022-08-16T12:38:49.843Z,70.36
2022-08-16T12:39:51.251Z,70.48
2022-08-16T12:40:48.594Z,70.60
2022-08-16T12:41:54.655Z,70.36
2022-08-16T12:42:52.359Z,70.24
2022-08-16T12:43:48.304Z,70.24
2022-08-16T12:44:48.309Z,70.30
2022-08-16T12:45:48.229Z,70.54
2022-08-16T12:46:54.503Z,70.24
2022-08-16T12:47:48.317Z,70.12